createdAt,value
2022-08-14T00:00:44.537Z,7.17
2022-08-14T00:03:20.690Z,6.33
2022-08-14T00:06:00.484Z,6.37
2022-08-14T00:08:43.485Z,6.13
2022-08-14T00:11:14.189Z,6.43
2022-08-14T00:13:52.536Z,8.63
2022-08-14T00:16:41.220Z,6.67
2022-08-14T00:19:18.673Z,6.60
2022-08-14T00:21:50.298Z,7.17
2022-08-14T00:24:23.238Z,6.53
2022-08-14T00:27:01.893Z,6.67
2022-08-14T00:29:39.892Z,6.80
2022-08-14T00:32:52.129Z,7.47
2022-08-14T00:35:01.422Z,7.50
2022-08-14T00:37:30.649Z,6.50
2022-08-14T00:40:03.076Z,8.60
2022-08-14T00:42:55.924Z,7.20
2022-08-14T00:45:25.109Z,7.30
2022-08-14T00:47:53.667Z,7.33
2022-08-14T00:50:23.691Z,8.00
2022-08-14T00:52:56.058Z,6.17
2022-08-14T00:55:27.954Z,5.63
2022-08-14T00:58:18.610Z,6.73
2022-08-14T01:00:57.567Z,7.00
2022-08-14T01:03:30.861Z,7.50
2022-08-14T01:06:00.745Z,8.50
2022-08-14T01:08:52.235Z,9.13
2022-08-14T01:11:35.626Z,9.47
2022-08-14T01:14:25.203Z,9.40
2022-08-14T01:16:55.434Z,8.97
2022-08-14T01:19:43.486Z,8.50
2022-08-14T01:22:18.560Z,9.03
2022-08-14T01:24:48.626Z,8.00
2022-08-14T01:27:22.420Z,8.20
2022-08-14T01:30:03.767Z,7.10
2022-08-14T01:32:37.357Z,6.30
2022-08-14T01:40:54.377Z,7.77
2022-08-14T01:43:27.064Z,7.43
2022-08-14T01:45:57.752Z,6.13
2022-08-14T01:48:37.489Z,6.37
2022-08-14T01:51:19.340Z,4.90
2022-08-14T01:53:54.735Z,4.77
2022-08-14T01:56:37.168Z,4.67
2022-08-14T01:59:18.144Z,4.30
2022-08-14T02:01:57.916Z,4.97
2022-08-14T02:04:54.884Z,5.47
2022-08-14T02:07:34.950Z,5.37
2022-08-14T02:10:12.895Z,5.23
2022-08-14T02:12:49.019Z,3.87
2022-08-14T02:15:26.442Z,2.93
2022-08-14T02:17:55.118Z,2.80
2022-08-14T02:20:24.901Z,2.60
2022-08-14T02:22:54.929Z,2.30
2022-08-14T02:25:23.988Z,1.43
2022-08-14T02:28:24.384Z,1.60
2022-08-14T02:30:48.670Z,1.67
2022-08-14T02:33:23.402Z,1.60
2022-08-14T02:35:53.206Z,1.77
2022-08-14T02:38:34.950Z,2.27
2022-08-14T02:41:08.962Z,1.90
2022-08-14T02:43:46.470Z,1.93
2022-08-14T02:46:20.076Z,1.90
2022-08-14T02:49:04.241Z,1.90
2022-08-14T02:51:36.734Z,2.23
2022-08-14T02:54:07.325Z,3.13
2022-08-14T02:57:16.625Z,2.50
2022-08-14T02:59:33.778Z,2.30
2022-08-14T03:02:03.658Z,3.13
2022-08-14T03:04:33.575Z,4.23
2022-08-14T03:07:06.318Z,3.60
2022-08-14T03:10:24.709Z,3.03
2022-08-14T03:12:31.182Z,3.07
2022-08-14T03:15:16.486Z,3.30
2022-08-14T03:17:57.527Z,3.10
2022-08-14T03:20:28.417Z,2.70
2022-08-14T03:22:59.562Z,2.20
2022-08-14T03:25:34.131Z,2.00
2022-08-14T03:28:07.428Z,1.93
2022-08-14T03:30:39.352Z,2.07
2022-08-14T03:33:11.624Z,2.00
2022-08-14T03:35:59.871Z,2.00
2022-08-14T03:39:14.406Z,1.87
2022-08-14T03:41:23.174Z,2.00
2022-08-14T03:44:00.979Z,2.10
2022-08-14T03:46:54.922Z,2.20
2022-08-14T03:49:29.227Z,2.50
2022-08-14T03:52:00.787Z,2.20
2022-08-14T03:54:30.158Z,2.20
2022-08-14T03:57:02.890Z,2.50
2022-08-14T03:59:32.850Z,2.43
2022-08-14T04:02:04.588Z,2.50
2022-08-14T04:04:34.116Z,2.50
2022-08-14T04:07:03.464Z,2.60
2022-08-14T04:09:31.958Z,2.40
2022-08-14T04:12:00.497Z,2.80
2022-08-14T04:14:31.057Z,3.07
2022-08-14T04:17:10.140Z,2.53
2022-08-14T04:19:40.429Z,3.23
2022-08-14T04:22:09.855Z,2.87
2022-08-14T04:24:40.331Z,3.47
2022-08-14T04:27:10.482Z,2.77
2022-08-14T04:29:39.866Z,3.40
2022-08-14T04:33:01.074Z,3.90
2022-08-14T04:35:01.482Z,3.60
2022-08-14T04:37:59.131Z,3.20
2022-08-14T04:40:45.446Z,2.57
2022-08-14T04:43:38.749Z,3.13
2022-08-14T04:46:54.708Z,3.20
2022-08-14T04:49:00.542Z,3.17
2022-08-14T04:51:46.227Z,3.30
2022-08-14T04:54:19.103Z,2.73
2022-08-14T04:56:47.589Z,3.23
2022-08-14T04:59:16.916Z,2.80
2022-08-14T05:01:49.802Z,2.50
2022-08-14T05:04:21.851Z,2.50
2022-08-14T05:06:53.562Z,2.57
2022-08-14T05:09:23.247Z,2.67
2022-08-14T05:11:51.889Z,2.50
2022-08-14T05:14:45.674Z,2.50
2022-08-14T05:17:11.478Z,2.40
2022-08-14T05:19:45.060Z,2.60
2022-08-14T05:22:31.129Z,3.20
2022-08-14T05:24:59.998Z,3.07
2022-08-14T05:27:31.242Z,2.70
2022-08-14T05:30:00.606Z,2.60
2022-08-14T05:32:29.116Z,2.60
2022-08-14T05:35:00.881Z,4.13
2022-08-14T05:37:31.002Z,2.93
2022-08-14T05:40:02.282Z,3.43
2022-08-14T05:42:34.494Z,2.90
2022-08-14T05:45:05.315Z,3.30
2022-08-14T05:47:42.949Z,2.60
2022-08-14T05:50:17.308Z,2.00
2022-08-14T05:52:48.242Z,2.00
2022-08-14T05:55:22.136Z,1.90
2022-08-14T05:57:54.965Z,2.10
2022-08-14T06:00:30.831Z,2.20
2022-08-14T06:03:07.133Z,2.60
2022-08-14T06:05:38.735Z,3.00
2022-08-14T06:08:36.672Z,2.40
2022-08-14T06:11:06.681Z,2.40
2022-08-14T06:13:44.897Z,3.17
2022-08-14T06:16:17.726Z,2.73
2022-08-14T06:18:51.802Z,3.67
2022-08-14T06:21:23.626Z,3.40
2022-08-14T06:23:52.816Z,3.80
2022-08-14T06:26:22.558Z,3.67
2022-08-14T06:28:58.566Z,4.10
2022-08-14T06:31:27.089Z,3.93
2022-08-14T06:35:10.641Z,3.93
2022-08-14T06:36:47.416Z,3.73
2022-08-14T06:39:17.297Z,4.17
2022-08-14T06:42:04.883Z,3.80
2022-08-14T06:44:34.853Z,4.27
2022-08-14T06:47:05.520Z,4.40
2022-08-14T06:49:40.102Z,4.17
2022-08-14T06:52:16.568Z,4.70
2022-08-14T06:54:45.605Z,4.27
2022-08-14T06:57:14.291Z,3.90
2022-08-14T06:59:43.231Z,4.20
2022-08-14T07:02:29.695Z,4.20
2022-08-14T07:05:17.007Z,3.40
2022-08-14T07:07:53.509Z,3.40
2022-08-14T07:10:24.757Z,3.47
2022-08-14T07:13:01.405Z,3.47
2022-08-14T07:15:34.082Z,3.50
2022-08-14T07:18:09.297Z,3.53
2022-08-14T07:20:38.254Z,4.63
2022-08-14T07:23:20.769Z,4.40
2022-08-14T07:25:51.422Z,5.23
2022-08-14T07:28:23.789Z,3.90
2022-08-14T07:31:04.242Z,3.87
2022-08-14T07:33:41.820Z,3.90
2022-08-14T07:36:27.204Z,4.17
2022-08-14T07:39:03.576Z,3.83
2022-08-14T07:41:42.553Z,3.33
2022-08-14T07:44:28.574Z,3.47
2022-08-14T07:47:01.011Z,3.17
2022-08-14T07:49:29.970Z,2.77
2022-08-14T07:52:00.175Z,2.50
2022-08-14T07:54:31.746Z,3.30
2022-08-14T07:57:11.793Z,3.07
2022-08-14T07:59:43.641Z,3.70
2022-08-14T08:02:16.998Z,3.57
2022-08-14T08:04:54.033Z,2.40
2022-08-14T08:07:24.141Z,2.10
2022-08-14T08:09:59.794Z,2.63
2022-08-14T08:12:32.357Z,2.47
2022-08-14T08:15:07.353Z,2.10
2022-08-14T08:17:53.389Z,2.43
2022-08-14T08:20:27.251Z,2.33
2022-08-14T08:23:00.541Z,1.40
2022-08-14T08:25:39.679Z,1.80
2022-08-14T08:28:21.818Z,1.30
2022-08-14T08:30:56.367Z,1.30
2022-08-14T08:33:32.101Z,1.53
2022-08-14T08:36:12.961Z,1.47
2022-08-14T08:39:17.101Z,1.50
2022-08-14T08:41:44.351Z,1.60
2022-08-14T08:44:17.514Z,2.37
2022-08-14T08:47:05.768Z,2.80
2022-08-14T08:49:48.278Z,3.10
2022-08-14T08:52:25.437Z,2.17
2022-08-14T08:54:59.736Z,2.17
2022-08-14T08:57:37.449Z,1.73
2022-08-14T09:00:25.413Z,1.50
2022-08-14T09:02:57.790Z,1.50
2022-08-14T09:05:26.800Z,1.73
2022-08-14T09:07:56.486Z,1.80
2022-08-14T09:10:27.182Z,1.80
2022-08-14T09:12:59.104Z,1.50
2022-08-14T09:15:36.635Z,2.00
2022-08-14T09:18:13.453Z,5.27
2022-08-14T09:20:49.406Z,1.53
2022-08-14T09:23:18.529Z,2.10
2022-08-14T09:26:05.129Z,1.90
2022-08-14T09:28:52.215Z,2.00
2022-08-14T09:31:21.735Z,2.30
2022-08-14T09:34:04.405Z,2.07
2022-08-14T09:37:07.555Z,2.27
2022-08-14T09:39:46.013Z,2.10
2022-08-14T09:42:33.997Z,2.10
2022-08-14T09:45:16.697Z,2.47
2022-08-14T09:47:49.214Z,2.47
2022-08-14T09:50:25.814Z,2.30
2022-08-14T09:52:59.249Z,2.73
2022-08-14T09:55:36.788Z,2.13
2022-08-14T09:58:20.013Z,2.50
2022-08-14T10:00:57.501Z,2.50
2022-08-14T10:03:34.727Z,2.20
2022-08-14T10:06:12.134Z,2.00
2022-08-14T10:08:51.130Z,2.67
2022-08-14T10:11:23.039Z,2.50
2022-08-14T10:13:56.050Z,2.77
2022-08-14T10:16:33.678Z,2.20
2022-08-14T10:19:09.374Z,2.37
2022-08-14T10:21:58.786Z,2.67
2022-08-14T10:24:36.385Z,2.47
2022-08-14T10:27:16.920Z,2.67
2022-08-14T10:29:49.001Z,2.40
2022-08-14T10:32:28.267Z,2.60
2022-08-14T10:35:13.435Z,3.37
2022-08-14T10:37:48.408Z,7.03
2022-08-14T10:40:38.515Z,5.40
2022-08-14T10:43:23.164Z,7.90
2022-08-14T10:46:03.277Z,5.80
2022-08-14T10:49:00.959Z,3.67
2022-08-14T10:51:41.561Z,5.60
2022-08-14T10:54:35.296Z,3.70
2022-08-14T10:57:17.378Z,4.33
2022-08-14T10:59:49.973Z,4.93
2022-08-14T11:02:45.192Z,2.77
2022-08-14T11:05:23.674Z,3.80
2022-08-14T11:07:59.737Z,6.10
2022-08-14T11:10:42.950Z,4.40
2022-08-14T11:13:16.936Z,5.20
2022-08-14T11:15:46.349Z,3.57
2022-08-14T11:18:20.567Z,4.30
2022-08-14T11:21:02.243Z,3.93
2022-08-14T11:23:38.607Z,5.90
2022-08-14T11:26:10.255Z,3.20
2022-08-14T11:28:46.906Z,3.50
2022-08-14T11:31:22.035Z,2.00
2022-08-14T11:33:55.400Z,1.80
2022-08-14T11:37:02.797Z,2.13
2022-08-14T11:39:33.409Z,1.70
2022-08-14T11:42:55.783Z,2.10
2022-08-14T11:44:56.875Z,2.23
2022-08-14T11:47:35.324Z,2.10
2022-08-14T11:50:33.857Z,1.80
2022-08-14T11:53:08.985Z,2.03
2022-08-14T11:55:40.002Z,2.00
2022-08-14T11:58:23.961Z,2.50
2022-08-14T12:00:57.290Z,2.40
2022-08-14T12:03:51.354Z,2.07
2022-08-14T12:06:29.397Z,2.17
2022-08-14T12:09:14.772Z,2.40
2022-08-14T12:11:47.009Z,2.40
2022-08-14T12:14:30.645Z,2.90
2022-08-14T12:17:09.599Z,3.30
2022-08-14T12:19:50.603Z,3.17
2022-08-14T12:22:29.665Z,3.67
2022-08-14T12:25:01.318Z,2.83
2022-08-14T12:27:41.916Z,3.23
2022-08-14T12:30:29.134Z,5.53
2022-08-14T12:33:05.481Z,4.83
2022-08-14T12:35:40.850Z,3.67
2022-08-14T12:38:14.841Z,3.87
2022-08-14T12:40:51.918Z,4.20
2022-08-14T12:43:22.981Z,3.30
2022-08-14T12:45:55.181Z,3.80
2022-08-14T12:48:31.872Z,3.07
2022-08-14T12:51:01.377Z,3.13
2022-08-14T12:53:39.950Z,3.40
2022-08-14T12:56:21.490Z,8.50
2022-08-14T12:59:00.249Z,2.60
2022-08-14T13:01:31.457Z,3.37
2022-08-14T13:04:10.023Z,2.77
2022-08-14T13:06:40.538Z,3.23
2022-08-14T13:09:11.684Z,4.13
2022-08-14T13:11:45.519Z,3.30
2022-08-14T13:14:17.610Z,3.10
2022-08-14T13:16:50.267Z,3.17
2022-08-14T13:19:20.589Z,2.80
2022-08-14T13:21:58.789Z,2.63
2022-08-14T13:24:35.976Z,2.70
2022-08-14T13:27:09.801Z,9.70
2022-08-14T13:29:46.566Z,2.60
2022-08-14T13:32:17.978Z,3.73
2022-08-14T13:34:49.577Z,3.70
2022-08-14T13:37:22.728Z,3.23
2022-08-14T13:39:56.550Z,2.53
2022-08-14T13:42:30.783Z,2.93
2022-08-14T13:45:03.686Z,2.83
2022-08-14T13:47:33.402Z,2.60
2022-08-14T13:50:04.648Z,2.63
2022-08-14T13:52:52.287Z,3.00
2022-08-14T13:55:24.166Z,3.17
2022-08-14T13:58:04.467Z,2.40
2022-08-14T14:00:52.870Z,3.50
2022-08-14T14:03:30.484Z,3.90
2022-08-14T14:06:01.760Z,3.43
2022-08-14T14:08:46.723Z,3.13
2022-08-14T14:11:18.183Z,7.17
2022-08-14T14:13:49.730Z,3.50
2022-08-14T14:16:21.597Z,4.17
2022-08-14T14:18:56.177Z,4.00
2022-08-14T14:21:28.751Z,3.67
2022-08-14T14:23:58.206Z,5.20
2022-08-14T14:26:29.376Z,3.97
2022-08-14T14:29:05.106Z,4.80
2022-08-14T14:31:33.946Z,4.07
2022-08-14T14:34:07.325Z,7.43
2022-08-14T14:36:50.142Z,7.03
2022-08-14T14:39:25.574Z,3.17
2022-08-14T14:42:04.123Z,3.90
2022-08-14T14:44:40.607Z,3.90
2022-08-14T14:47:10.598Z,2.90
2022-08-14T14:49:51.067Z,4.90
2022-08-14T14:52:27.691Z,3.63
2022-08-14T14:54:58.925Z,4.77
2022-08-14T14:57:35.351Z,4.80
2022-08-14T15:00:12.587Z,2.93
2022-08-14T15:02:44.533Z,2.90
2022-08-14T15:05:16.199Z,2.40
2022-08-14T15:07:45.752Z,3.90
2022-08-14T15:10:26.823Z,3.17
2022-08-14T15:13:00.188Z,2.10
2022-08-14T15:15:37.481Z,2.40
2022-08-14T15:18:36.116Z,2.67
2022-08-14T15:20:58.221Z,2.00
2022-08-14T15:23:32.469Z,2.10
2022-08-14T15:26:24.167Z,1.90
2022-08-14T15:29:05.926Z,2.90
2022-08-14T15:31:37.585Z,2.60
2022-08-14T15:34:44.997Z,1.93
2022-08-14T15:37:05.670Z,3.50
2022-08-14T15:39:35.762Z,3.10
2022-08-14T15:42:14.692Z,2.10
2022-08-14T15:44:57.376Z,2.10
2022-08-14T15:47:34.998Z,4.27
2022-08-14T15:50:11.394Z,3.77
2022-08-14T15:52:42.931Z,16.37
2022-08-14T15:55:15.190Z,10.87
2022-08-14T15:57:51.440Z,5.00
2022-08-14T16:00:49.959Z,5.60
2022-08-14T16:03:24.927Z,5.63
2022-08-14T16:05:57.007Z,2.00
2022-08-14T16:08:28.759Z,2.27
2022-08-14T16:11:00.303Z,17.63
2022-08-14T16:13:39.529Z,3.17
2022-08-14T16:16:50.427Z,2.20
2022-08-14T16:19:10.653Z,2.37
2022-08-14T16:22:01.351Z,2.00
2022-08-14T16:24:33.540Z,2.60
2022-08-14T16:27:05.257Z,2.90
2022-08-14T16:29:35.992Z,1.97
2022-08-14T16:32:32.821Z,2.37
2022-08-14T16:34:55.846Z,4.40
2022-08-14T16:37:30.195Z,7.73
2022-08-14T16:40:01.742Z,3.10
2022-08-14T16:42:39.302Z,3.90
2022-08-14T16:45:25.416Z,3.10
2022-08-14T16:47:54.321Z,2.90
2022-08-14T16:50:43.623Z,3.50
2022-08-14T16:53:17.693Z,3.27
2022-08-14T16:55:53.806Z,2.67
2022-08-14T16:58:29.932Z,7.10
2022-08-14T17:01:24.547Z,3.60
2022-08-14T17:03:56.734Z,2.97
2022-08-14T17:06:47.971Z,3.10
2022-08-14T17:09:32.321Z,3.63
2022-08-14T17:12:07.597Z,6.70
2022-08-14T17:15:03.865Z,3.90
2022-08-14T17:17:57.934Z,3.13
2022-08-14T17:20:39.206Z,4.10
2022-08-14T17:23:19.638Z,3.57
2022-08-14T17:25:50.914Z,4.40
2022-08-14T17:28:50.164Z,3.10
2022-08-14T17:34:00.856Z,5.90
2022-08-14T17:36:31.690Z,3.10
2022-08-14T17:39:06.765Z,3.27
2022-08-14T17:41:43.689Z,4.47
2022-08-14T17:44:21.972Z,4.13
2022-08-14T17:47:04.224Z,4.07
2022-08-14T17:49:35.079Z,3.23
2022-08-14T17:52:16.632Z,3.10
2022-08-14T17:54:52.759Z,3.03
2022-08-14T17:57:28.374Z,2.87
2022-08-14T17:59:59.105Z,3.27
2022-08-14T18:02:31.345Z,3.67
2022-08-14T18:05:02.787Z,3.87
2022-08-14T18:08:00.010Z,4.40
2022-08-14T18:10:56.225Z,3.57
2022-08-14T18:13:16.562Z,4.23
2022-08-14T18:15:51.092Z,3.13
2022-08-14T18:18:20.014Z,3.47
2022-08-14T18:21:39.796Z,4.50
2022-08-14T18:23:43.140Z,4.10
2022-08-14T18:26:36.447Z,5.20
2022-08-14T18:29:03.039Z,4.30
2022-08-14T18:31:46.550Z,4.67
2022-08-14T18:34:31.058Z,4.20
2022-08-14T18:37:14.339Z,6.67
2022-08-14T18:40:03.137Z,5.00
2022-08-14T18:42:44.715Z,5.43
2022-08-14T18:45:18.896Z,6.93
2022-08-14T18:48:28.726Z,4.47
2022-08-14T18:51:15.137Z,5.37
2022-08-14T18:53:59.558Z,4.90
2022-08-14T18:56:58.860Z,4.27
2022-08-14T18:59:40.296Z,6.17
2022-08-14T19:02:43.482Z,7.47
2022-08-14T19:05:14.295Z,4.40
2022-08-14T19:07:48.134Z,3.83
2022-08-14T19:10:31.958Z,4.70
2022-08-14T19:13:12.965Z,4.63
2022-08-14T19:15:44.648Z,13.70
2022-08-14T19:18:26.644Z,7.47
2022-08-14T19:20:58.909Z,7.60
2022-08-14T19:23:42.732Z,4.40
2022-08-14T19:26:35.405Z,3.93
2022-08-14T19:29:24.243Z,4.40
2022-08-14T19:31:59.019Z,4.43
2022-08-14T19:34:52.740Z,4.13
2022-08-14T19:37:47.817Z,4.80
2022-08-14T19:40:33.232Z,4.10
2022-08-14T19:43:06.480Z,5.70
2022-08-14T19:45:35.572Z,8.43
2022-08-14T19:48:13.347Z,12.53
2022-08-14T19:50:46.380Z,10.53
2022-08-14T19:53:17.113Z,9.37
2022-08-14T19:55:59.519Z,9.17
2022-08-14T19:58:55.049Z,6.13
2022-08-14T20:01:37.085Z,7.80
2022-08-14T20:04:46.500Z,6.07
2022-08-14T20:07:09.089Z,6.47
2022-08-14T20:11:07.363Z,5.70
2022-08-14T20:12:35.542Z,6.37
2022-08-14T20:15:47.127Z,6.37
2022-08-14T20:18:38.982Z,6.60
2022-08-14T20:21:07.500Z,6.50
2022-08-14T20:23:38.904Z,8.00
2022-08-14T20:26:31.429Z,8.30
2022-08-14T20:29:05.342Z,7.47
2022-08-14T20:31:38.582Z,7.10
2022-08-14T20:34:24.889Z,6.53
2022-08-14T20:37:09.757Z,4.97
2022-08-14T20:39:54.308Z,6.80
2022-08-14T20:42:43.882Z,6.23
2022-08-14T20:45:21.388Z,10.70
2022-08-14T20:47:58.537Z,11.90
2022-08-14T20:50:31.406Z,5.17
2022-08-14T20:53:05.906Z,5.60
2022-08-14T20:55:41.772Z,4.80
2022-08-14T20:58:41.955Z,4.47
2022-08-14T21:01:33.708Z,4.90
2022-08-14T21:04:12.087Z,4.30
2022-08-14T21:07:23.337Z,5.40
2022-08-14T21:10:03.248Z,5.07
2022-08-14T21:12:34.938Z,4.67
2022-08-14T21:15:11.090Z,5.33
2022-08-14T21:17:43.350Z,4.07
2022-08-14T21:20:26.068Z,6.97
2022-08-14T21:23:00.431Z,5.63
2022-08-14T21:25:31.870Z,4.47
2022-08-14T21:28:09.077Z,4.37
2022-08-14T21:30:57.559Z,4.70
2022-08-14T21:33:27.877Z,6.03
2022-08-14T21:36:00.404Z,4.47
2022-08-14T21:38:38.084Z,5.07
2022-08-14T21:41:43.242Z,6.30
2022-08-14T21:44:17.385Z,5.17
2022-08-14T21:46:50.263Z,4.33
2022-08-14T21:49:23.509Z,5.93
2022-08-14T21:51:59.991Z,5.07
2022-08-14T21:54:49.131Z,5.20
2022-08-14T21:58:46.214Z,4.43
2022-08-14T22:00:35.657Z,4.50
2022-08-14T22:03:09.240Z,4.20
2022-08-14T22:05:41.729Z,4.33
2022-08-14T22:08:14.036Z,4.77
2022-08-14T22:10:46.533Z,3.73
2022-08-14T22:13:16.729Z,4.40
2022-08-14T22:15:50.018Z,4.07
2022-08-14T22:18:21.113Z,3.20
2022-08-14T22:20:56.461Z,3.20
2022-08-14T22:23:27.145Z,4.10
2022-08-14T22:25:56.259Z,3.97
2022-08-14T22:28:33.004Z,5.30
2022-08-14T22:31:10.380Z,5.27
2022-08-14T22:33:43.000Z,3.57
2022-08-14T22:36:33.956Z,3.23
2022-08-14T22:39:11.468Z,3.43
2022-08-14T22:41:43.042Z,3.60
2022-08-14T22:44:15.946Z,3.20
2022-08-14T22:46:45.131Z,4.37
2022-08-14T22:50:31.937Z,4.13
2022-08-14T22:52:33.051Z,3.63
2022-08-14T22:55:00.476Z,4.17
2022-08-14T22:57:37.914Z,4.57
2022-08-14T23:00:16.269Z,4.07
2022-08-14T23:02:46.772Z,5.50
2022-08-14T23:05:15.957Z,3.70
2022-08-14T23:08:59.424Z,4.00
2022-08-14T23:10:35.036Z,4.10
2022-08-14T23:13:06.766Z,4.43
2022-08-14T23:15:37.529Z,6.87
2022-08-14T23:18:06.439Z,4.70
2022-08-14T23:20:42.425Z,8.87
2022-08-14T23:23:22.309Z,5.30
2022-08-14T23:25:59.289Z,4.17
2022-08-14T23:28:33.401Z,6.93
2022-08-14T23:31:05.755Z,6.00
2022-08-14T23:33:36.055Z,3.27
2022-08-14T23:36:31.583Z,3.80
2022-08-14T23:39:07.184Z,3.80
2022-08-14T23:41:46.833Z,3.23
2022-08-14T23:44:24.136Z,3.37
2022-08-14T23:46:56.573Z,3.00
2022-08-14T23:49:25.716Z,3.60
2022-08-14T23:52:51.507Z,3.53
2022-08-14T23:54:48.238Z,3.33
2022-08-14T23:57:19.000Z,3.20
2022-08-14T23:59:54.279Z,3.10
